sensor_id;sensor_type;location;lat;lon;timestamp;P1;durP1;ratioP1;P2;durP2;ratioP2
74532;SDS011;63012;51.096;-115.366;2022-09-13T00:01:14;16.80;;;7.60;;
74532;SDS011;63012;51.096;-115.366;2022-09-13T00:03:42;13.90;;;8.00;;
74532;SDS011;63012;51.096;-115.366;2022-09-13T00:06:14;17.60;;;8.10;;
74532;SDS011;63012;51.096;-115.366;2022-09-13T00:08:44;16.20;;;8.00;;
74532;SDS011;63012;51.096;-115.366;2022-09-13T00:11:17;13.70;;;7.40;;
74532;SDS011;63012;51.096;-115.366;2022-09-13T00:13:47;12.80;;;7.00;;
74532;SDS011;63012;51.096;-115.366;2022-09-13T00:16:16;14.00;;;7.20;;
74532;SDS011;63012;51.096;-115.366;2022-09-13T00:18:45;15.20;;;7.40;;
74532;SDS011;63012;51.096;-115.366;2022-09-13T00:21:15;17.10;;;7.40;;
74532;SDS011;63012;51.096;-115.366;2022-09-13T00:23:46;15.70;;;8.00;;
74532;SDS011;63012;51.096;-115.366;2022-09-13T00:26:18;14.90;;;8.20;;
74532;SDS011;63012;51.096;-115.366;2022-09-13T00:28:51;14.30;;;7.00;;
74532;SDS011;63012;51.096;-115.366;2022-09-13T00:31:23;16.10;;;8.50;;
74532;SDS011;63012;51.096;-115.366;2022-09-13T00:33:52;14.60;;;7.60;;
74532;SDS011;63012;51.096;-115.366;2022-09-13T00:36:20;14.20;;;7.20;;
74532;SDS011;63012;51.096;-115.366;2022-09-13T00:38:47;14.70;;;7.90;;
74532;SDS011;63012;51.096;-115.366;2022-09-13T00:41:16;13.70;;;7.20;;
74532;SDS011;63012;51.096;-115.366;2022-09-13T00:46:34;15.20;;;8.10;;
74532;SDS011;63012;51.096;-115.366;2022-09-13T00:49:16;14.80;;;7.30;;
74532;SDS011;63012;51.096;-115.366;2022-09-13T00:51:55;16.70;;;8.00;;
74532;SDS011;63012;51.096;-115.366;2022-09-13T00:54:28;14.80;;;7.60;;
74532;SDS011;63012;51.096;-115.366;2022-09-13T00:57:03;15.60;;;7.90;;
74532;SDS011;63012;51.096;-115.366;2022-09-13T00:59:38;15.90;;;7.80;;
74532;SDS011;63012;51.096;-115.366;2022-09-13T01:02:10;17.20;;;8.00;;
74532;SDS011;63012;51.096;-115.366;2022-09-13T01:04:37;15.90;;;8.00;;
74532;SDS011;63012;51.096;-115.366;2022-09-13T01:07:09;15.30;;;7.80;;
74532;SDS011;63012;51.096;-115.366;2022-09-13T01:09:43;15.20;;;8.10;;
74532;SDS011;63012;51.096;-115.366;2022-09-13T01:12:28;15.40;;;8.00;;
74532;SDS011;63012;51.096;-115.366;2022-09-13T01:15:03;14.30;;;7.80;;
74532;SDS011;63012;51.096;-115.366;2022-09-13T01:17:32;15.50;;;7.90;;
74532;SDS011;63012;51.096;-115.366;2022-09-13T01:20:00;16.10;;;8.20;;
74532;SDS011;63012;51.096;-115.366;2022-09-13T01:23:02;14.20;;;8.10;;
74532;SDS011;63012;51.096;-115.366;2022-09-13T01:26:17;16.70;;;7.40;;
74532;SDS011;63012;51.096;-115.366;2022-09-13T01:32:55;14.80;;;8.20;;
74532;SDS011;63012;51.096;-115.366;2022-09-13T01:39:06;20.00;;;8.70;;
74532;SDS011;63012;51.096;-115.366;2022-09-13T01:50:24;18.40;;;9.50;;
74532;SDS011;63012;51.096;-115.366;2022-09-13T01:53:14;16.50;;;8.30;;
74532;SDS011;63012;51.096;-115.366;2022-09-13T01:56:05;18.60;;;9.10;;
74532;SDS011;63012;51.096;-115.366;2022-09-13T02:01:57;16.20;;;8.30;;
74532;SDS011;63012;51.096;-115.366;2022-09-13T02:04:54;17.40;;;8.30;;
74532;SDS011;63012;51.096;-115.366;2022-09-13T02:07:53;16.60;;;8.90;;
74532;SDS011;63012;51.096;-115.366;2022-09-13T02:10:56;17.80;;;9.20;;
74532;SDS011;63012;51.096;-115.366;2022-09-13T02:13:34;20.40;;;9.70;;
74532;SDS011;63012;51.096;-115.366;2022-09-13T02:16:14;26.10;;;14.00;;
74532;SDS011;63012;51.096;-115.366;2022-09-13T02:18:52;25.60;;;13.90;;
74532;SDS011;63012;51.096;-115.366;2022-09-13T02:21:29;23.10;;;13.60;;
74532;SDS011;63012;51.096;-115.366;2022-09-13T02:24:06;21.70;;;13.50;;
74532;SDS011;63012;51.096;-115.366;2022-09-13T02:26:38;24.20;;;14.00;;
74532;SDS011;63012;51.096;-115.366;2022-09-13T02:29:13;22.20;;;12.40;;
74532;SDS011;63012;51.096;-115.366;2022-09-13T02:34:39;20.40;;;11.10;;
74532;SDS011;63012;51.096;-115.366;2022-09-13T02:37:09;22.60;;;10.20;;
74532;SDS011;63012;51.096;-115.366;2022-09-13T02:39:46;20.00;;;10.00;;
74532;SDS011;63012;51.096;-115.366;2022-09-13T02:42:29;22.00;;;10.50;;
74532;SDS011;63012;51.096;-115.366;2022-09-13T02:44:58;20.60;;;9.80;;
74532;SDS011;63012;51.096;-115.366;2022-09-13T02:47:53;22.30;;;10.10;;
74532;SDS011;63012;51.096;-115.366;2022-09-13T02:56:16;18.80;;;8.80;;
74532;SDS011;63012;51.096;-115.366;2022-09-13T03:02:06;19.70;;;10.40;;
74532;SDS011;63012;51.096;-115.366;2022-09-13T03:04:44;19.40;;;9.40;;
74532;SDS011;63012;51.096;-115.366;2022-09-13T03:07:12;19.70;;;10.00;;
74532;SDS011;63012;51.096;-115.366;2022-09-13T03:10:01;17.50;;;9.70;;
74532;SDS011;63012;51.096;-115.366;2022-09-13T03:24:25;22.10;;;10.90;;
74532;SDS011;63012;51.096;-115.366;2022-09-13T03:30:08;23.10;;;11.10;;
74532;SDS011;63012;51.096;-115.366;2022-09-13T03:33:05;18.50;;;9.40;;
74532;SDS011;63012;51.096;-115.366;2022-09-13T03:35:53;17.20;;;9.80;;
74532;SDS011;63012;51.096;-115.366;2022-09-13T03:38:41;21.60;;;10.00;;
74532;SDS011;63012;51.096;-115.366;2022-09-13T03:41:26;21.30;;;10.30;;
74532;SDS011;63012;51.096;-115.366;2022-09-13T03:43:59;19.70;;;10.00;;
74532;SDS011;63012;51.096;-115.366;2022-09-13T03:46:38;22.50;;;10.30;;
74532;SDS011;63012;51.096;-115.366;2022-09-13T03:49:14;17.60;;;8.70;;
74532;SDS011;63012;51.096;-115.366;2022-09-13T03:51:46;17.10;;;9.20;;
74532;SDS011;63012;51.096;-115.366;2022-09-13T03:54:21;18.00;;;9.90;;
74532;SDS011;63012;51.096;-115.366;2022-09-13T03:57:28;19.90;;;10.30;;
74532;SDS011;63012;51.096;-115.366;2022-09-13T03:59:56;20.10;;;9.60;;
74532;SDS011;63012;51.096;-115.366;2022-09-13T04:02:24;19.80;;;10.00;;
74532;SDS011;63012;51.096;-115.366;2022-09-13T04:04:52;20.40;;;10.10;;
74532;SDS011;63012;51.096;-115.366;2022-09-13T04:07:22;18.70;;;10.10;;
74532;SDS011;63012;51.096;-115.366;2022-09-13T04:09:50;20.40;;;10.60;;
74532;SDS011;63012;51.096;-115.366;2022-09-13T04:12:17;20.00;;;10.40;;
74532;SDS011;63012;51.096;-115.366;2022-09-13T04:14:45;18.70;;;10.00;;
74532;SDS011;63012;51.096;-115.366;2022-09-13T04:17:12;19.40;;;10.20;;
74532;SDS011;63012;51.096;-115.366;2022-09-13T04:19:40;21.00;;;10.20;;
74532;SDS011;63012;51.096;-115.366;2022-09-13T04:22:10;21.10;;;10.40;;
74532;SDS011;63012;51.096;-115.366;2022-09-13T04:24:37;22.10;;;10.80;;
74532;SDS011;63012;51.096;-115.366;2022-09-13T04:27:05;20.30;;;10.40;;
74532;SDS011;63012;51.096;-115.366;2022-09-13T04:29:32;19.50;;;9.80;;
74532;SDS011;63012;51.096;-115.366;2022-09-13T04:31:59;20.40;;;10.10;;
74532;SDS011;63012;51.096;-115.366;2022-09-13T04:34:26;19.50;;;9.80;;
74532;SDS011;63012;51.096;-115.366;2022-09-13T04:36:53;19.10;;;8.90;;
74532;SDS011;63012;51.096;-115.366;2022-09-13T04:39:21;18.60;;;9.60;;
74532;SDS011;63012;51.096;-115.366;2022-09-13T04:41:50;19.00;;;9.90;;
74532;SDS011;63012;51.096;-115.366;2022-09-13T04:44:19;20.20;;;10.10;;
74532;SDS011;63012;51.096;-115.366;2022-09-13T04:46:49;20.40;;;10.50;;
74532;SDS011;63012;51.096;-115.366;2022-09-13T04:49:17;20.10;;;10.80;;
74532;SDS011;63012;51.096;-115.366;2022-09-13T04:51:48;19.00;;;10.20;;
74532;SDS011;63012;51.096;-115.366;2022-09-13T04:54:15;20.00;;;10.20;;
74532;SDS011;63012;51.096;-115.366;2022-09-13T04:56:43;18.10;;;9.20;;
74532;SDS011;63012;51.096;-115.366;2022-09-13T04:59:11;22.60;;;10.90;;
74532;SDS011;63012;51.096;-115.366;2022-09-13T05:01:39;19.30;;;9.40;;
74532;SDS011;63012;51.096;-115.366;2022-09-13T05:04:06;23.00;;;11.00;;
74532;SDS011;63012;51.096;-115.366;2022-09-13T05:06:35;22.20;;;10.50;;
74532;SDS011;63012;51.096;-115.366;2022-09-13T05:09:02;17.50;;;9.70;;
74532;SDS011;63012;51.096;-115.366;2022-09-13T05:11:30;21.60;;;9.90;;
74532;SDS011;63012;51.096;-115.366;2022-09-13T05:13:59;19.90;;;10.40;;
74532;SDS011;63012;51.096;-115.366;2022-09-13T05:16:29;19.30;;;11.00;;
74532;SDS011;63012;51.096;-115.366;2022-09-13T05:18:58;21.30;;;10.90;;
74532;SDS011;63012;51.096;-115.366;2022-09-13T05:21:26;21.10;;;11.50;;
74532;SDS011;63012;51.096;-115.366;2022-09-13T05:23:55;23.50;;;12.20;;
74532;SDS011;63012;51.096;-115.366;2022-09-13T05:26:24;20.70;;;10.60;;
74532;SDS011;63012;51.096;-115.366;2022-09-13T05:28:57;20.50;;;11.20;;
74532;SDS011;63012;51.096;-115.366;2022-09-13T05:31:31;22.00;;;11.30;;
74532;SDS011;63012;51.096;-115.366;2022-09-13T05:34:02;20.60;;;10.60;;
74532;SDS011;63012;51.096;-115.366;2022-09-13T05:36:32;21.20;;;11.20;;
74532;SDS011;63012;51.096;-115.366;2022-09-13T05:39:00;21.60;;;11.50;;
74532;SDS011;63012;51.096;-115.366;2022-09-13T05:41:27;21.90;;;11.00;;
74532;SDS011;63012;51.096;-115.366;2022-09-13T05:43:54;24.70;;;14.00;;
74532;SDS011;63012;51.096;-115.366;2022-09-13T05:46:21;26.60;;;13.50;;
74532;SDS011;63012;51.096;-115.366;2022-09-13T05:48:48;26.10;;;14.10;;
74532;SDS011;63012;51.096;-115.366;2022-09-13T05:51:20;23.30;;;12.20;;
74532;SDS011;63012;51.096;-115.366;2022-09-13T05:53:49;25.90;;;12.90;;
74532;SDS011;63012;51.096;-115.366;2022-09-13T05:56:26;24.60;;;12.70;;
74532;SDS011;63012;51.096;-115.366;2022-09-13T05:58:54;26.20;;;13.30;;
74532;SDS011;63012;51.096;-115.366;2022-09-13T06:01:26;28.60;;;14.00;;
74532;SDS011;63012;51.096;-115.366;2022-09-13T06:03:57;26.50;;;14.90;;
74532;SDS011;63012;51.096;-115.366;2022-09-13T06:06:25;27.40;;;13.20;;
74532;SDS011;63012;51.096;-115.366;2022-09-13T06:08:54;26.80;;;13.30;;
74532;SDS011;63012;51.096;-115.366;2022-09-13T06:11:22;25.10;;;12.70;;
74532;SDS011;63012;51.096;-115.366;2022-09-13T06:13:51;29.40;;;15.10;;
74532;SDS011;63012;51.096;-115.366;2022-09-13T06:16:19;26.90;;;14.50;;
74532;SDS011;63012;51.096;-115.366;2022-09-13T06:18:46;28.70;;;14.00;;
74532;SDS011;63012;51.096;-115.366;2022-09-13T06:21:19;27.20;;;13.20;;
74532;SDS011;63012;51.096;-115.366;2022-09-13T06:23:50;31.20;;;15.30;;
74532;SDS011;63012;51.096;-115.366;2022-09-13T06:26:21;30.10;;;14.50;;
74532;SDS011;63012;51.096;-115.366;2022-09-13T06:28:51;27.20;;;14.40;;
74532;SDS011;63012;51.096;-115.366;2022-09-13T06:31:21;26.90;;;14.70;;
74532;SDS011;63012;51.096;-115.366;2022-09-13T06:33:58;28.30;;;15.20;;
74532;SDS011;63012;51.096;-115.366;2022-09-13T06:36:28;28.30;;;14.80;;
74532;SDS011;63012;51.096;-115.366;2022-09-13T06:38:56;29.70;;;15.30;;
74532;SDS011;63012;51.096;-115.366;2022-09-13T06:41:25;30.20;;;16.10;;
74532;SDS011;63012;51.096;-115.366;2022-09-13T06:43:57;30.70;;;15.20;;
74532;SDS011;63012;51.096;-115.366;2022-09-13T06:46:27;31.30;;;16.10;;
74532;SDS011;63012;51.096;-115.366;2022-09-13T06:49:02;35.40;;;16.20;;
74532;SDS011;63012;51.096;-115.366;2022-09-13T06:51:31;27.50;;;15.10;;
74532;SDS011;63012;51.096;-115.366;2022-09-13T06:53:59;28.70;;;15.10;;
74532;SDS011;63012;51.096;-115.366;2022-09-13T06:56:34;31.90;;;15.40;;
74532;SDS011;63012;51.096;-115.366;2022-09-13T06:59:05;31.20;;;16.70;;
74532;SDS011;63012;51.096;-115.366;2022-09-13T07:01:36;32.20;;;17.90;;
74532;SDS011;63012;51.096;-115.366;2022-09-13T07:04:09;33.90;;;18.50;;
74532;SDS011;63012;51.096;-115.366;2022-09-13T07:06:43;36.90;;;19.60;;
74532;SDS011;63012;51.096;-115.366;2022-09-13T07:09:20;37.90;;;20.20;;
74532;SDS011;63012;51.096;-115.366;2022-09-13T07:11:49;36.40;;;19.70;;
74532;SDS011;63012;51.096;-115.366;2022-09-13T07:14:23;35.60;;;18.90;;
74532;SDS011;63012;51.096;-115.366;2022-09-13T07:16:52;35.40;;;19.60;;
74532;SDS011;63012;51.096;-115.366;2022-09-13T07:19:24;35.70;;;18.80;;
74532;SDS011;63012;51.096;-115.366;2022-09-13T07:21:53;31.80;;;16.50;;
74532;SDS011;63012;51.096;-115.366;2022-09-13T07:24:22;30.20;;;16.50;;
74532;SDS011;63012;51.096;-115.366;2022-09-13T07:26:50;36.40;;;17.50;;
74532;SDS011;63012;51.096;-115.366;2022-09-13T07:29:19;38.70;;;17.80;;
74532;SDS011;63012;51.096;-115.366;2022-09-13T07:31:51;37.60;;;17.40;;
74532;SDS011;63012;51.096;-115.366;2022-09-13T07:34:21;31.90;;;16.60;;
74532;SDS011;63012;51.096;-115.366;2022-09-13T07:36:50;34.90;;;18.10;;
74532;SDS011;63012;51.096;-115.366;2022-09-13T07:39:17;32.50;;;16.50;;
74532;SDS011;63012;51.096;-115.366;2022-09-13T07:41:45;33.80;;;16.10;;
74532;SDS011;63012;51.096;-115.366;2022-09-13T07:44:12;38.30;;;16.70;;
74532;SDS011;63012;51.096;-115.366;2022-09-13T07:46:39;36.90;;;16.60;;
74532;SDS011;63012;51.096;-115.366;2022-09-13T07:49:10;33.60;;;16.40;;
74532;SDS011;63012;51.096;-115.366;2022-09-13T07:51:40;30.50;;;16.10;;
74532;SDS011;63012;51.096;-115.366;2022-09-13T07:54:15;37.40;;;16.80;;
74532;SDS011;63012;51.096;-115.366;2022-09-13T07:56:43;43.00;;;19.60;;
74532;SDS011;63012;51.096;-115.366;2022-09-13T07:59:13;36.00;;;16.70;;
74532;SDS011;63012;51.096;-115.366;2022-09-13T08:01:51;42.50;;;20.40;;
74532;SDS011;63012;51.096;-115.366;2022-09-13T08:04:23;39.80;;;19.70;;
74532;SDS011;63012;51.096;-115.366;2022-09-13T08:06:51;34.50;;;17.60;;
74532;SDS011;63012;51.096;-115.366;2022-09-13T08:09:18;38.40;;;18.50;;
74532;SDS011;63012;51.096;-115.366;2022-09-13T08:11:50;41.10;;;18.90;;
74532;SDS011;63012;51.096;-115.366;2022-09-13T08:14:19;40.30;;;20.10;;
74532;SDS011;63012;51.096;-115.366;2022-09-13T08:16:48;31.80;;;16.00;;
74532;SDS011;63012;51.096;-115.366;2022-09-13T08:19:17;38.90;;;18.60;;
74532;SDS011;63012;51.096;-115.366;2022-09-13T08:21:45;39.80;;;20.00;;
74532;SDS011;63012;51.096;-115.366;2022-09-13T08:24:18;36.00;;;18.20;;
74532;SDS011;63012;51.096;-115.366;2022-09-13T08:26:46;38.30;;;19.30;;
74532;SDS011;63012;51.096;-115.366;2022-09-13T08:29:14;34.30;;;17.70;;
74532;SDS011;63012;51.096;-115.366;2022-09-13T08:31:42;36.20;;;17.90;;
74532;SDS011;63012;51.096;-115.366;2022-09-13T08:34:11;36.70;;;20.40;;
74532;SDS011;63012;51.096;-115.366;2022-09-13T08:36:40;36.60;;;20.10;;
74532;SDS011;63012;51.096;-115.366;2022-09-13T08:39:08;36.80;;;20.30;;
74532;SDS011;63012;51.096;-115.366;2022-09-13T08:44:30;39.20;;;20.90;;
74532;SDS011;63012;51.096;-115.366;2022-09-13T08:50:36;38.80;;;21.10;;
74532;SDS011;63012;51.096;-115.366;2022-09-13T08:53:23;36.30;;;18.40;;
74532;SDS011;63012;51.096;-115.366;2022-09-13T08:56:22;35.30;;;19.00;;
74532;SDS011;63012;51.096;-115.366;2022-09-13T08:59:16;40.80;;;21.60;;
74532;SDS011;63012;51.096;-115.366;2022-09-13T09:04:53;44.90;;;22.50;;
74532;SDS011;63012;51.096;-115.366;2022-09-13T09:07:41;40.40;;;20.20;;
74532;SDS011;63012;51.096;-115.366;2022-09-13T09:13:31;39.90;;;19.50;;
74532;SDS011;63012;51.096;-115.366;2022-09-13T09:16:11;37.70;;;19.80;;
74532;SDS011;63012;51.096;-115.366;2022-09-13T09:19:39;40.00;;;20.70;;
74532;SDS011;63012;51.096;-115.366;2022-09-13T09:22:17;48.10;;;22.50;;
74532;SDS011;63012;51.096;-115.366;2022-09-13T09:24:49;41.50;;;22.20;;
74532;SDS011;63012;51.096;-115.366;2022-09-13T09:27:21;41.10;;;22.20;;
74532;SDS011;63012;51.096;-115.366;2022-09-13T09:29:50;38.50;;;20.30;;
74532;SDS011;63012;51.096;-115.366;2022-09-13T09:38:46;45.60;;;23.70;;
74532;SDS011;63012;51.096;-115.366;2022-09-13T09:41:29;44.10;;;24.20;;
74532;SDS011;63012;51.096;-115.366;2022-09-13T09:46:39;42.20;;;22.40;;
74532;SDS011;63012;51.096;-115.366;2022-09-13T09:49:16;45.10;;;23.50;;
74532;SDS011;63012;51.096;-115.366;2022-09-13T09:52:43;48.40;;;24.10;;
74532;SDS011;63012;51.096;-115.366;2022-09-13T09:58:00;50.20;;;27.30;;
74532;SDS011;63012;51.096;-115.366;2022-09-13T10:00:57;47.10;;;25.50;;
74532;SDS011;63012;51.096;-115.366;2022-09-13T10:03:25;44.80;;;22.90;;
74532;SDS011;63012;51.096;-115.366;2022-09-13T10:06:17;43.20;;;22.30;;
74532;SDS011;63012;51.096;-115.366;2022-09-13T10:08:59;43.60;;;22.40;;
74532;SDS011;63012;51.096;-115.366;2022-09-13T10:11:52;46.90;;;26.00;;
74532;SDS011;63012;51.096;-115.366;2022-09-13T10:14:40;48.90;;;27.10;;
74532;SDS011;63012;51.096;-115.366;2022-09-13T10:17:21;49.10;;;27.30;;
74532;SDS011;63012;51.096;-115.366;2022-09-13T10:19:57;46.90;;;25.30;;
74532;SDS011;63012;51.096;-115.366;2022-09-13T10:22:31;48.50;;;26.30;;
74532;SDS011;63012;51.096;-115.366;2022-09-13T10:25:24;48.80;;;25.30;;
74532;SDS011;63012;51.096;-115.366;2022-09-13T10:27:55;43.90;;;24.10;;
74532;SDS011;63012;51.096;-115.366;2022-09-13T10:30:39;48.60;;;26.20;;
74532;SDS011;63012;51.096;-115.366;2022-09-13T10:33:35;51.10;;;27.20;;
74532;SDS011;63012;51.096;-115.366;2022-09-13T10:36:20;52.80;;;28.50;;
74532;SDS011;63012;51.096;-115.366;2022-09-13T10:39:05;50.20;;;27.70;;
74532;SDS011;63012;51.096;-115.366;2022-09-13T10:41:49;47.20;;;26.20;;
74532;SDS011;63012;51.096;-115.366;2022-09-13T10:44:29;45.20;;;24.50;;
74532;SDS011;63012;51.096;-115.366;2022-09-13T10:47:03;49.90;;;25.50;;
74532;SDS011;63012;51.096;-115.366;2022-09-13T10:52:31;53.90;;;29.50;;
74532;SDS011;63012;51.096;-115.366;2022-09-13T10:57:52;49.80;;;25.80;;
74532;SDS011;63012;51.096;-115.366;2022-09-13T11:00:54;47.30;;;24.60;;
74532;SDS011;63012;51.096;-115.366;2022-09-13T11:27:44;55.30;;;30.10;;
74532;SDS011;63012;51.096;-115.366;2022-09-13T11:30:25;58.20;;;30.00;;
74532;SDS011;63012;51.096;-115.366;2022-09-13T11:35:54;48.60;;;27.10;;
74532;SDS011;63012;51.096;-115.366;2022-09-13T11:38:51;50.40;;;25.60;;
74532;SDS011;63012;51.096;-115.366;2022-09-13T11:41:49;56.70;;;30.20;;
74532;SDS011;63012;51.096;-115.366;2022-09-13T11:56:52;48.70;;;26.30;;
74532;SDS011;63012;51.096;-115.366;2022-09-13T11:59:40;51.30;;;27.40;;
74532;SDS011;63012;51.096;-115.366;2022-09-13T12:02:39;52.40;;;29.10;;
74532;SDS011;63012;51.096;-115.366;2022-09-13T12:05:31;55.40;;;29.60;;
74532;SDS011;63012;51.096;-115.366;2022-09-13T12:08:20;50.50;;;27.80;;
74532;SDS011;63012;51.096;-115.366;2022-09-13T12:10:56;59.40;;;29.30;;
74532;SDS011;63012;51.096;-115.366;2022-09-13T12:13:30;50.00;;;27.80;;
74532;SDS011;63012;51.096;-115.366;2022-09-13T12:16:07;52.70;;;27.40;;
74532;SDS011;63012;51.096;-115.366;2022-09-13T12:18:49;54.70;;;30.20;;
74532;SDS011;63012;51.096;-115.366;2022-09-13T12:21:26;60.80;;;31.60;;
74532;SDS011;63012;51.096;-115.366;2022-09-13T12:32:01;58.80;;;31.70;;
74532;SDS011;63012;51.096;-115.366;2022-09-13T12:34:44;52.00;;;28.70;;
74532;SDS011;63012;51.096;-115.366;2022-09-13T12:37:39;52.50;;;28.60;;
74532;SDS011;63012;51.096;-115.366;2022-09-13T12:46:14;63.50;;;32.80;;
74532;SDS011;63012;51.096;-115.366;2022-09-13T12:49:18;57.50;;;30.50;;
74532;SDS011;63012;51.096;-115.366;2022-09-13T13:01:50;60.80;;;30.80;;
74532;SDS011;63012;51.096;-115.366;2022-09-13T13:04:31;59.00;;;31.30;;
74532;SDS011;63012;51.096;-115.366;2022-09-13T13:07:04;59.80;;;30.50;;
74532;SDS011;63012;51.096;-115.366;2022-09-13T13:09:44;62.60;;;30.70;;
74532;SDS011;63012;51.096;-115.366;2022-09-13T13:12:35;62.50;;;30.60;;
74532;SDS011;63012;51.096;-115.366;2022-09-13T13:18:20;61.40;;;28.60;;
74532;SDS011;63012;51.096;-115.366;2022-09-13T13:28:53;62.20;;;31.90;;
74532;SDS011;63012;51.096;-115.366;2022-09-13T13:32:03;60.50;;;31.00;;
74532;SDS011;63012;51.096;-115.366;2022-09-13T13:42:31;66.90;;;31.00;;
74532;SDS011;63012;51.096;-115.366;2022-09-13T13:45:19;70.30;;;33.50;;
74532;SDS011;63012;51.096;-115.366;2022-09-13T13:48:07;62.00;;;31.10;;
74532;SDS011;63012;51.096;-115.366;2022-09-13T13:51:13;62.20;;;30.30;;
74532;SDS011;63012;51.096;-115.366;2022-09-13T13:54:56;54.10;;;26.80;;
74532;SDS011;63012;51.096;-115.366;2022-09-13T14:00:49;60.10;;;31.70;;
74532;SDS011;63012;51.096;-115.366;2022-09-13T14:09:22;63.10;;;32.20;;
74532;SDS011;63012;51.096;-115.366;2022-09-13T14:12:30;59.90;;;31.20;;
74532;SDS011;63012;51.096;-115.366;2022-09-13T14:18:12;54.60;;;28.90;;
74532;SDS011;63012;51.096;-115.366;2022-09-13T14:20:59;60.70;;;32.00;;
74532;SDS011;63012;51.096;-115.366;2022-09-13T14:23:28;69.20;;;32.10;;
74532;SDS011;63012;51.096;-115.366;2022-09-13T14:26:00;62.50;;;32.10;;
74532;SDS011;63012;51.096;-115.366;2022-09-13T14:28:27;67.00;;;33.40;;
74532;SDS011;63012;51.096;-115.366;2022-09-13T14:30:56;55.20;;;29.00;;
74532;SDS011;63012;51.096;-115.366;2022-09-13T14:33:29;58.30;;;30.20;;
74532;SDS011;63012;51.096;-115.366;2022-09-13T14:36:20;63.10;;;31.60;;
74532;SDS011;63012;51.096;-115.366;2022-09-13T14:38:56;65.20;;;33.10;;
74532;SDS011;63012;51.096;-115.366;2022-09-13T14:41:32;65.00;;;34.50;;
74532;SDS011;63012;51.096;-115.366;2022-09-13T14:44:20;60.80;;;31.90;;
74532;SDS011;63012;51.096;-115.366;2022-09-13T14:47:15;61.70;;;31.90;;
74532;SDS011;63012;51.096;-115.366;2022-09-13T14:49:47;58.00;;;29.20;;
74532;SDS011;63012;51.096;-115.366;2022-09-13T14:52:35;54.50;;;29.20;;
74532;SDS011;63012;51.096;-115.366;2022-09-13T14:55:12;58.60;;;31.60;;
74532;SDS011;63012;51.096;-115.366;2022-09-13T14:57:45;61.10;;;32.40;;
74532;SDS011;63012;51.096;-115.366;2022-09-13T15:00:21;59.10;;;30.90;;
74532;SDS011;63012;51.096;-115.366;2022-09-13T15:02:56;61.30;;;32.70;;
74532;SDS011;63012;51.096;-115.366;2022-09-13T15:05:28;62.80;;;32.50;;
74532;SDS011;63012;51.096;-115.366;2022-09-13T15:07:58;53.10;;;29.70;;
74532;SDS011;63012;51.096;-115.366;2022-09-13T15:10:32;56.70;;;30.20;;
74532;SDS011;63012;51.096;-115.366;2022-09-13T15:13:10;62.90;;;32.80;;
74532;SDS011;63012;51.096;-115.366;2022-09-13T15:15:38;62.90;;;33.00;;
74532;SDS011;63012;51.096;-115.366;2022-09-13T15:20:57;59.40;;;33.20;;
74532;SDS011;63012;51.096;-115.366;2022-09-13T15:23:38;60.90;;;32.30;;
74532;SDS011;63012;51.096;-115.366;2022-09-13T15:26:10;54.20;;;29.30;;
74532;SDS011;63012;51.096;-115.366;2022-09-13T15:31:26;57.60;;;30.00;;
74532;SDS011;63012;51.096;-115.366;2022-09-13T15:34:21;60.70;;;33.40;;
74532;SDS011;63012;51.096;-115.366;2022-09-13T15:37:11;60.60;;;33.10;;
74532;SDS011;63012;51.096;-115.366;2022-09-13T15:39:47;61.90;;;33.30;;
74532;SDS011;63012;51.096;-115.366;2022-09-13T15:42:18;63.50;;;32.90;;
74532;SDS011;63012;51.096;-115.366;2022-09-13T15:44:45;57.30;;;29.30;;
74532;SDS011;63012;51.096;-115.366;2022-09-13T15:47:18;57.20;;;30.50;;
74532;SDS011;63012;51.096;-115.366;2022-09-13T15:49:49;61.10;;;32.50;;
74532;SDS011;63012;51.096;-115.366;2022-09-13T15:52:18;63.20;;;33.60;;
74532;SDS011;63012;51.096;-115.366;2022-09-13T15:54:48;58.70;;;31.90;;
74532;SDS011;63012;51.096;-115.366;2022-09-13T15:57:26;62.60;;;33.20;;
74532;SDS011;63012;51.096;-115.366;2022-09-13T15:59:55;57.60;;;31.00;;
74532;SDS011;63012;51.096;-115.366;2022-09-13T16:02:29;57.70;;;31.90;;
74532;SDS011;63012;51.096;-115.366;2022-09-13T16:04:58;53.60;;;28.80;;
74532;SDS011;63012;51.096;-115.366;2022-09-13T16:07:25;52.60;;;29.40;;
74532;SDS011;63012;51.096;-115.366;2022-09-13T16:09:52;56.20;;;32.80;;
74532;SDS011;63012;51.096;-115.366;2022-09-13T16:12:19;56.60;;;32.40;;
74532;SDS011;63012;51.096;-115.366;2022-09-13T16:14:49;63.20;;;33.70;;
74532;SDS011;63012;51.096;-115.366;2022-09-13T16:17:22;57.20;;;32.70;;
74532;SDS011;63012;51.096;-115.366;2022-09-13T16:19:51;56.40;;;33.30;;
74532;SDS011;63012;51.096;-115.366;2022-09-13T16:22:19;57.70;;;31.20;;
74532;SDS011;63012;51.096;-115.366;2022-09-13T16:24:47;56.40;;;30.80;;
74532;SDS011;63012;51.096;-115.366;2022-09-13T16:27:15;53.60;;;29.70;;
74532;SDS011;63012;51.096;-115.366;2022-09-13T16:29:43;50.50;;;29.30;;
74532;SDS011;63012;51.096;-115.366;2022-09-13T16:32:11;58.80;;;32.70;;
74532;SDS011;63012;51.096;-115.366;2022-09-13T16:34:38;57.70;;;33.10;;
74532;SDS011;63012;51.096;-115.366;2022-09-13T16:37:05;58.60;;;33.50;;
74532;SDS011;63012;51.096;-115.366;2022-09-13T16:39:33;60.00;;;32.10;;
74532;SDS011;63012;51.096;-115.366;2022-09-13T16:41:59;63.40;;;34.60;;
74532;SDS011;63012;51.096;-115.366;2022-09-13T16:44:26;55.60;;;31.90;;
74532;SDS011;63012;51.096;-115.366;2022-09-13T16:46:53;58.80;;;33.30;;
74532;SDS011;63012;51.096;-115.366;2022-09-13T16:49:20;59.60;;;33.70;;
74532;SDS011;63012;51.096;-115.366;2022-09-13T16:51:47;56.00;;;30.70;;
74532;SDS011;63012;51.096;-115.366;2022-09-13T16:54:14;52.80;;;29.40;;
74532;SDS011;63012;51.096;-115.366;2022-09-13T16:56:41;50.60;;;29.50;;
74532;SDS011;63012;51.096;-115.366;2022-09-13T16:59:09;61.30;;;33.40;;
74532;SDS011;63012;51.096;-115.366;2022-09-13T17:01:36;57.40;;;32.50;;
74532;SDS011;63012;51.096;-115.366;2022-09-13T17:04:03;58.10;;;33.10;;
74532;SDS011;63012;51.096;-115.366;2022-09-13T17:06:30;55.20;;;32.00;;
74532;SDS011;63012;51.096;-115.366;2022-09-13T17:09:00;56.70;;;33.10;;
74532;SDS011;63012;51.096;-115.366;2022-09-13T17:11:34;53.30;;;31.70;;
74532;SDS011;63012;51.096;-115.366;2022-09-13T17:14:05;59.20;;;33.40;;
74532;SDS011;63012;51.096;-115.366;2022-09-13T17:16:37;56.60;;;33.30;;
74532;SDS011;63012;51.096;-115.366;2022-09-13T17:19:12;56.40;;;31.80;;
74532;SDS011;63012;51.096;-115.366;2022-09-13T17:21:44;57.50;;;32.50;;
74532;SDS011;63012;51.096;-115.366;2022-09-13T17:24:12;54.00;;;31.30;;
74532;SDS011;63012;51.096;-115.366;2022-09-13T17:26:40;54.60;;;31.20;;
74532;SDS011;63012;51.096;-115.366;2022-09-13T17:29:07;52.50;;;29.10;;
74532;SDS011;63012;51.096;-115.366;2022-09-13T17:31:37;49.20;;;29.30;;